Time;durP1;ratioP1;P1;durP2;ratioP2;P2;SDS_P1;SDS_P2;PMS_P1;PMS_P2;Temp;Humidity;BMP_temperature;BMP_pressure;BME280_temperature;BME280_humidity;BME280_pressure;Samples;Min_cycle;Max_cycle;Signal;HPM_P1;HPM_P2
2023/11/28 00:01:24;;;;;;;16.52;10.77;;;1.80;99.90;;;;;;4744860;30;20058;-48
2023/11/28 00:03:51;;;;;;;18.63;10.75;;;1.80;99.90;;;;;;4747465;30;20060;-47
2023/11/28 00:06:18;;;;;;;18.63;11.35;;;1.80;99.90;;;;;;4746624;30;20048;-44
2023/11/28 00:08:46;;;;;;;16.05;10.63;;;1.70;99.90;;;;;;4744809;30;20128;-43
2023/11/28 00:11:21;;;;;;;14.68;9.40;;;1.80;99.90;;;;;;4745576;30;20131;-49
2023/11/28 00:13:49;;;;;;;18.75;9.90;;;1.80;99.90;;;;;;4727090;30;20131;-48
2023/11/28 00:16:17;;;;;;;16.42;10.20;;;1.80;99.90;;;;;;4745283;30;20060;-43
2023/11/28 00:18:44;;;;;;;16.80;10.20;;;1.80;99.90;;;;;;4741955;30;20058;-48
2023/11/28 00:21:12;;;;;;;16.33;9.90;;;1.80;99.90;;;;;;4727111;30;20083;-48
2023/11/28 00:23:40;;;;;;;18.42;10.30;;;1.80;99.90;;;;;;4745506;30;20075;-45
2023/11/28 00:26:07;;;;;;;14.18;9.00;;;1.80;99.90;;;;;;4743321;30;20126;-44
2023/11/28 00:28:36;;;;;;;15.57;9.30;;;1.80;99.90;;;;;;4728305;30;20422;-43
2023/11/28 00:31:03;;;;;;;16.00;9.85;;;1.80;99.90;;;;;;4716678;30;20066;-46
2023/11/28 00:33:31;;;;;;;15.80;9.52;;;1.90;99.90;;;;;;4728577;30;20051;-47
2023/11/28 00:35:58;;;;;;;12.65;8.90;;;1.90;99.90;;;;;;4730403;30;20579;-47
2023/11/28 00:38:25;;;;;;;14.80;9.02;;;1.90;99.90;;;;;;4725562;30;20501;-47
2023/11/28 00:40:52;;;;;;;15.98;10.40;;;1.90;99.90;;;;;;4741430;30;20079;-46
2023/11/28 00:43:20;;;;;;;15.93;10.32;;;1.90;99.90;;;;;;4745572;30;20055;-46
2023/11/28 00:45:48;;;;;;;15.10;9.60;;;2.00;99.90;;;;;;4729386;30;20058;-47
2023/11/28 00:48:15;;;;;;;14.43;9.25;;;2.00;99.90;;;;;;4742824;30;20056;-50
2023/11/28 00:50:42;;;;;;;14.15;9.68;;;2.00;99.90;;;;;;4745366;24;20101;-46
2023/11/28 00:53:10;;;;;;;13.35;8.40;;;2.00;99.90;;;;;;4734572;30;20045;-51
2023/11/28 00:55:37;;;;;;;13.80;8.55;;;2.10;99.90;;;;;;4716401;30;20144;-51
2023/11/28 00:58:04;;;;;;;13.60;8.35;;;2.00;99.90;;;;;;4730865;30;20057;-50
2023/11/28 01:00:31;;;;;;;12.93;8.20;;;2.10;99.90;;;;;;4729260;30;20516;-52
2023/11/28 01:03:02;;;;;;;12.45;8.48;;;2.10;99.90;;;;;;4727233;30;20539;-46
2023/11/28 01:05:30;;;;;;;13.65;8.55;;;2.10;99.90;;;;;;4728432;30;20049;-48
2023/11/28 01:07:57;;;;;;;15.60;8.93;;;2.10;99.90;;;;;;4729178;30;20052;-46
2023/11/28 01:10:24;;;;;;;13.38;8.93;;;2.10;99.90;;;;;;4729545;30;20122;-49
2023/11/28 01:12:52;;;;;;;13.00;7.68;;;2.10;99.90;;;;;;4730258;30;20067;-53
2023/11/28 01:15:19;;;;;;;13.98;8.30;;;2.10;99.90;;;;;;4729345;30;20061;-46
2023/11/28 01:17:46;;;;;;;13.35;8.50;;;2.10;99.90;;;;;;4729373;30;20144;-54
2023/11/28 01:20:13;;;;;;;12.15;8.70;;;2.10;99.90;;;;;;4730050;30;20052;-51
2023/11/28 01:22:41;;;;;;;12.88;8.27;;;2.20;99.90;;;;;;4729415;30;20519;-47
2023/11/28 01:25:08;;;;;;;12.98;8.52;;;2.10;99.90;;;;;;4730580;30;20064;-52
2023/11/28 01:27:35;;;;;;;12.30;8.65;;;2.10;99.90;;;;;;4715003;30;20506;-49
2023/11/28 01:30:03;;;;;;;12.68;8.32;;;2.10;99.90;;;;;;4730221;30;20528;-51
2023/11/28 01:32:30;;;;;;;12.88;8.57;;;2.10;99.90;;;;;;4728348;30;20052;-51
2023/11/28 01:34:57;;;;;;;12.43;8.55;;;2.10;99.90;;;;;;4731053;30;20102;-48
2023/11/28 01:37:25;;;;;;;13.18;8.32;;;2.10;99.90;;;;;;4729354;30;20179;-47
2023/11/28 01:39:52;;;;;;;12.38;8.65;;;2.10;99.90;;;;;;4728557;30;20136;-50
2023/11/28 01:42:19;;;;;;;12.68;8.32;;;2.20;99.90;;;;;;4730222;30;20064;-50
2023/11/28 01:44:46;;;;;;;12.13;8.05;;;2.20;99.90;;;;;;4727379;30;20439;-53
2023/11/28 01:47:14;;;;;;;14.10;8.95;;;2.20;99.90;;;;;;4730459;30;20057;-50
2023/11/28 01:49:43;;;;;;;13.30;8.48;;;2.20;99.90;;;;;;4734914;30;20044;-54
2023/11/28 01:52:11;;;;;;;15.98;8.35;;;2.30;99.90;;;;;;4716675;30;20151;-46
2023/11/28 01:54:41;;;;;;;13.95;8.73;;;2.30;99.90;;;;;;4730922;30;20072;-51
2023/11/28 01:57:10;;;;;;;11.90;8.13;;;2.30;99.90;;;;;;4732265;30;20040;-46
2023/11/28 01:59:40;;;;;;;12.20;7.30;;;2.20;99.90;;;;;;4744788;30;20060;-49
2023/11/28 02:02:08;;;;;;;13.27;7.65;;;2.30;99.90;;;;;;4731576;30;20383;-50
2023/11/28 02:04:35;;;;;;;13.93;8.15;;;2.20;99.90;;;;;;4748281;30;20430;-51
2023/11/28 02:07:03;;;;;;;14.13;7.93;;;2.20;99.90;;;;;;4726974;30;20131;-48
2023/11/28 02:09:31;;;;;;;13.80;8.60;;;2.20;99.90;;;;;;4745456;30;20074;-48
2023/11/28 02:11:58;;;;;;;12.43;8.23;;;2.20;99.90;;;;;;4744371;30;20133;-47
2023/11/28 02:14:26;;;;;;;12.85;7.95;;;2.20;99.90;;;;;;4730327;30;21625;-50
2023/11/28 02:16:53;;;;;;;13.27;8.85;;;2.20;99.90;;;;;;4748077;30;20109;-49
2023/11/28 02:19:21;;;;;;;13.25;8.75;;;2.20;99.90;;;;;;4744413;30;20049;-44
2023/11/28 02:21:49;;;;;;;13.57;8.45;;;2.10;99.90;;;;;;4746165;30;20063;-46
2023/11/28 02:24:17;;;;;;;12.07;7.80;;;2.20;99.90;;;;;;4730702;30;20554;-48
2023/11/28 02:26:45;;;;;;;13.20;8.05;;;2.20;99.90;;;;;;4746624;30;20052;-50
2023/11/28 02:29:12;;;;;;;11.77;7.53;;;2.20;99.90;;;;;;4731940;30;20423;-49
2023/11/28 02:31:39;;;;;;;13.55;8.43;;;2.20;99.90;;;;;;4723815;30;20075;-52
2023/11/28 02:34:06;;;;;;;14.60;8.50;;;2.20;99.90;;;;;;4746154;30;20052;-50
2023/11/28 02:36:33;;;;;;;12.85;8.45;;;2.30;99.90;;;;;;4745878;30;20063;-51
2023/11/28 02:39:00;;;;;;;14.13;8.02;;;2.20;99.90;;;;;;4728352;30;20428;-48
2023/11/28 02:41:28;;;;;;;12.10;7.72;;;2.20;99.90;;;;;;4729769;30;20072;-49
2023/11/28 02:43:55;;;;;;;12.02;7.72;;;2.20;99.90;;;;;;4743457;30;20067;-53
2023/11/28 02:46:22;;;;;;;12.20;8.10;;;2.20;99.90;;;;;;4748181;30;20159;-47
2023/11/28 02:48:49;;;;;;;14.45;8.05;;;2.30;99.90;;;;;;4729552;30;20134;-50
2023/11/28 02:51:19;;;;;;;13.80;8.45;;;2.30;99.90;;;;;;4747932;30;20055;-50
2023/11/28 02:53:47;;;;;;;13.60;8.65;;;2.30;99.90;;;;;;4734678;30;20200;-53
2023/11/28 02:56:14;;;;;;;11.38;7.38;;;2.20;99.90;;;;;;4750873;30;20099;-47
2023/11/28 02:58:41;;;;;;;11.30;7.85;;;2.20;99.90;;;;;;4750649;30;20147;-48
2023/11/28 03:01:09;;;;;;;13.05;8.50;;;2.30;99.90;;;;;;4748377;30;20473;-52
2023/11/28 03:03:36;;;;;;;14.07;8.32;;;2.20;99.90;;;;;;4729899;30;20487;-49
2023/11/28 03:06:04;;;;;;;12.23;8.13;;;2.30;99.90;;;;;;4747916;30;20448;-52
2023/11/28 03:08:31;;;;;;;12.55;7.82;;;2.30;99.90;;;;;;4724513;30;20376;-48
2023/11/28 03:10:58;;;;;;;9.88;6.43;;;2.20;99.90;;;;;;4732706;30;20052;-49
2023/11/28 03:13:25;;;;;;;10.80;6.65;;;2.20;99.90;;;;;;4748380;30;20087;-51
2023/11/28 03:15:53;;;;;;;11.50;7.47;;;2.10;99.90;;;;;;4749489;30;20048;-49
2023/11/28 03:18:20;;;;;;;12.05;7.95;;;2.20;99.90;;;;;;4749220;30;20481;-50
2023/11/28 03:20:48;;;;;;;12.63;8.00;;;2.10;99.90;;;;;;4747215;30;20112;-48
2023/11/28 03:23:15;;;;;;;11.88;7.43;;;2.20;99.90;;;;;;4750499;30;20060;-48
2023/11/28 03:25:42;;;;;;;11.35;6.97;;;2.20;99.90;;;;;;4750764;30;20455;-50
2023/11/28 03:28:09;;;;;;;10.70;7.43;;;2.10;99.90;;;;;;4736380;30;20586;-45
2023/11/28 03:30:37;;;;;;;11.98;7.43;;;2.20;99.90;;;;;;4745914;30;20073;-48
2023/11/28 03:33:04;;;;;;;10.80;6.97;;;2.20;99.90;;;;;;4747702;30;20550;-48
2023/11/28 03:35:31;;;;;;;12.25;7.47;;;2.20;99.90;;;;;;4748998;30;20079;-55
2023/11/28 03:37:58;;;;;;;11.30;7.18;;;2.20;99.90;;;;;;4750996;30;20483;-49
2023/11/28 03:40:26;;;;;;;11.88;7.35;;;2.20;99.90;;;;;;4733777;30;20059;-54
2023/11/28 03:42:54;;;;;;;12.07;7.55;;;2.20;99.90;;;;;;4746319;30;20050;-49
2023/11/28 03:45:21;;;;;;;11.63;6.93;;;2.20;99.90;;;;;;4749144;30;20059;-49
2023/11/28 03:47:49;;;;;;;12.73;7.93;;;2.20;99.90;;;;;;4750217;30;20056;-50
2023/11/28 03:50:16;;;;;;;10.82;7.43;;;2.30;99.90;;;;;;4743670;30;20126;-49
2023/11/28 03:52:43;;;;;;;10.48;6.80;;;2.30;99.90;;;;;;4747988;30;20439;-54
2023/11/28 03:55:10;;;;;;;11.52;7.10;;;2.40;99.90;;;;;;4741808;30;20135;-54
2023/11/28 03:57:38;;;;;;;9.73;6.80;;;2.30;99.90;;;;;;4733426;30;20052;-48
2023/11/28 04:00:06;;;;;;;11.50;7.40;;;2.30;99.90;;;;;;4748772;30;20465;-49
2023/11/28 04:02:33;;;;;;;10.63;6.90;;;2.30;99.90;;;;;;4747255;30;20060;-49
2023/11/28 04:05:04;;;;;;;11.80;7.07;;;2.40;99.90;;;;;;4745882;30;20427;-52
2023/11/28 04:07:32;;;;;;;11.68;7.40;;;2.40;99.90;;;;;;4745763;30;20422;-45
2023/11/28 04:09:59;;;;;;;11.77;7.57;;;2.40;99.90;;;;;;4733631;30;20079;-49
2023/11/28 04:12:28;;;;;;;12.32;7.63;;;2.50;99.90;;;;;;4719271;30;20059;-49
2023/11/28 04:14:55;;;;;;;12.05;7.10;;;2.50;99.90;;;;;;4732096;30;20059;-55
2023/11/28 04:17:23;;;;;;;12.45;7.32;;;2.40;99.90;;;;;;4714542;30;20135;-49
2023/11/28 04:19:50;;;;;;;11.95;7.90;;;2.50;99.90;;;;;;4750065;30;20052;-50
2023/11/28 04:22:17;;;;;;;13.90;8.52;;;2.50;99.90;;;;;;4732654;30;20071;-50
2023/11/28 04:24:46;;;;;;;11.20;7.50;;;2.50;99.90;;;;;;4733231;30;20406;-48
2023/11/28 04:27:15;;;;;;;12.32;7.95;;;2.50;99.90;;;;;;4730576;30;20052;-51
2023/11/28 04:29:44;;;;;;;10.85;6.97;;;2.50;99.90;;;;;;4732155;30;20110;-49
2023/11/28 04:32:11;;;;;;;12.88;7.88;;;2.40;99.90;;;;;;4748560;30;20083;-49
2023/11/28 04:34:39;;;;;;;14.40;8.38;;;2.40;99.90;;;;;;4729325;30;20078;-50
2023/11/28 04:37:06;;;;;;;12.23;7.38;;;2.40;99.90;;;;;;4716167;30;20522;-49
2023/11/28 04:39:37;;;;;;;11.85;7.55;;;2.40;99.90;;;;;;4728368;30;20123;-51
2023/11/28 04:42:05;;;;;;;14.25;8.23;;;2.50;99.90;;;;;;4733142;30;20052;-48
2023/11/28 04:44:32;;;;;;;14.40;7.65;;;2.40;99.90;;;;;;4747604;30;20444;-53
2023/11/28 04:46:59;;;;;;;11.65;7.45;;;2.50;99.90;;;;;;4733635;30;20064;-50
2023/11/28 04:49:27;;;;;;;11.20;7.68;;;2.50;99.90;;;;;;4730824;30;20436;-51
2023/11/28 04:51:54;;;;;;;13.38;7.63;;;2.50;99.90;;;;;;4726994;30;20133;-53
2023/11/28 04:54:21;;;;;;;12.68;7.72;;;2.50;99.90;;;;;;4730950;30;20052;-52
2023/11/28 04:56:48;;;;;;;11.35;7.45;;;2.50;99.90;;;;;;4747778;30;20048;-48
2023/11/28 04:59:16;;;;;;;11.48;7.07;;;2.50;99.90;;;;;;4747864;30;20135;-53
2023/11/28 05:01:47;;;;;;;11.77;7.65;;;2.50;99.90;;;;;;4733339;30;20059;-47
2023/11/28 05:04:15;;;;;;;13.20;8.10;;;2.50;99.90;;;;;;4731071;30;20071;-49
2023/11/28 05:06:43;;;;;;;12.80;8.35;;;2.50;99.90;;;;;;4750171;30;20075;-52
2023/11/28 05:09:11;;;;;;;11.80;7.07;;;2.50;99.90;;;;;;4732495;30;20056;-51
2023/11/28 05:11:38;;;;;;;12.10;7.55;;;2.50;99.90;;;;;;4731997;30;20063;-51
2023/11/28 05:14:05;;;;;;;12.90;7.97;;;2.40;99.90;;;;;;4745160;30;20048;-53
2023/11/28 05:16:32;;;;;;;12.98;8.10;;;2.40;99.90;;;;;;4745877;30;20119;-51
2023/11/28 05:19:15;;;;;;;14.27;8.82;;;2.40;99.90;;;;;;4733494;30;20461;-49
2023/11/28 05:21:43;;;;;;;13.77;8.25;;;2.40;99.90;;;;;;4731124;30;20117;-53
2023/11/28 05:24:11;;;;;;;13.40;8.75;;;2.40;99.90;;;;;;4728614;30;20080;-51
2023/11/28 05:26:38;;;;;;;13.90;8.50;;;2.40;99.90;;;;;;4726309;30;20134;-48
2023/11/28 05:29:06;;;;;;;16.42;8.35;;;2.40;99.90;;;;;;4731709;30;20068;-57
2023/11/28 05:31:34;;;;;;;12.35;8.32;;;2.40;99.90;;;;;;4716915;30;20063;-50
2023/11/28 05:34:01;;;;;;;13.30;8.60;;;2.30;99.90;;;;;;4732725;30;20147;-45
2023/11/28 05:36:28;;;;;;;12.73;7.68;;;2.30;99.90;;;;;;4718144;30;20125;-49
2023/11/28 05:38:56;;;;;;;12.70;8.30;;;2.30;99.90;;;;;;4734138;30;20048;-52
2023/11/28 05:41:23;;;;;;;15.02;7.97;;;2.30;99.90;;;;;;4733089;30;20059;-51
2023/11/28 05:43:53;;;;;;;13.38;8.65;;;2.30;99.90;;;;;;4731833;30;20542;-52
2023/11/28 05:46:20;;;;;;;11.43;7.38;;;2.30;99.90;;;;;;4730553;30;20491;-47
2023/11/28 05:48:48;;;;;;;10.90;7.03;;;2.20;99.90;;;;;;4748804;30;20079;-50
2023/11/28 05:51:16;;;;;;;11.07;7.38;;;2.20;99.90;;;;;;4728756;30;20490;-53
2023/11/28 05:53:43;;;;;;;11.73;7.63;;;2.20;99.90;;;;;;4745671;30;20090;-48
2023/11/28 05:56:11;;;;;;;11.65;7.57;;;2.20;99.90;;;;;;4715516;30;20044;-49
2023/11/28 05:58:40;;;;;;;11.88;7.45;;;2.20;99.90;;;;;;4745286;30;20048;-47
2023/11/28 06:01:08;;;;;;;11.25;7.22;;;2.10;99.90;;;;;;4714619;30;20056;-50
2023/11/28 06:03:38;;;;;;;12.68;8.13;;;2.10;99.90;;;;;;4746920;30;20493;-48
2023/11/28 06:06:06;;;;;;;12.82;7.70;;;2.10;99.90;;;;;;4732932;30;20056;-49
2023/11/28 06:08:33;;;;;;;12.13;8.00;;;2.10;99.90;;;;;;4728535;30;20079;-49
2023/11/28 06:11:00;;;;;;;13.35;7.93;;;2.10;99.90;;;;;;4732373;30;20056;-53
2023/11/28 06:13:28;;;;;;;14.23;9.50;;;2.10;99.90;;;;;;4747618;30;20143;-50
2023/11/28 06:15:55;;;;;;;13.52;7.90;;;2.00;99.90;;;;;;4730731;30;20554;-52
2023/11/28 06:18:22;;;;;;;13.05;8.75;;;2.00;99.90;;;;;;4747211;30;20848;-46
2023/11/28 06:20:49;;;;;;;12.27;7.38;;;2.00;99.90;;;;;;4734915;30;20048;-49
2023/11/28 06:23:19;;;;;;;12.82;8.55;;;2.00;99.90;;;;;;4733811;30;20060;-50
2023/11/28 06:25:46;;;;;;;16.02;7.97;;;2.00;99.90;;;;;;4736293;30;20374;-50
2023/11/28 06:28:14;;;;;;;12.98;7.93;;;2.00;99.90;;;;;;4732628;30;20072;-51
2023/11/28 06:30:42;;;;;;;13.15;8.10;;;2.00;99.90;;;;;;4750630;30;20044;-48
2023/11/28 06:33:10;;;;;;;11.60;7.68;;;2.00;99.90;;;;;;4750783;30;20074;-52
2023/11/28 06:35:37;;;;;;;13.20;8.25;;;2.00;99.90;;;;;;4730876;30;20219;-45
2023/11/28 06:38:04;;;;;;;12.30;7.53;;;2.00;99.90;;;;;;4747287;30;20590;-49
2023/11/28 06:40:32;;;;;;;13.25;8.20;;;2.00;99.90;;;;;;4750006;30;20116;-49
2023/11/28 06:43:00;;;;;;;13.30;7.75;;;2.00;99.90;;;;;;4745635;30;20059;-50
2023/11/28 06:45:27;;;;;;;11.18;7.10;;;2.00;99.90;;;;;;4733263;30;20063;-48
2023/11/28 06:47:54;;;;;;;12.77;7.72;;;2.00;99.90;;;;;;4747386;30;20461;-50
2023/11/28 06:50:22;;;;;;;13.55;7.70;;;2.00;99.90;;;;;;4747949;30;20490;-53
2023/11/28 06:52:49;;;;;;;15.65;8.70;;;2.00;99.90;;;;;;4750052;30;20060;-49
2023/11/28 06:55:16;;;;;;;13.68;7.43;;;2.00;99.90;;;;;;4747765;30;20074;-52
2023/11/28 06:57:48;;;;;;;;;;;2.00;99.90;;;;;;4750100;30;20052;-51
2023/11/28 07:00:16;;;;;;;15.00;8.82;;;2.00;99.90;;;;;;4748525;30;19933;-50
2023/11/28 07:02:43;;;;;;;13.23;8.25;;;1.90;99.90;;;;;;4748219;30;20769;-51
2023/11/28 07:05:11;;;;;;;15.45;9.65;;;1.90;99.90;;;;;;4755982;30;20064;-45
2023/11/28 07:07:41;;;;;;;15.90;9.77;;;1.90;99.90;;;;;;4749974;30;20044;-49
2023/11/28 07:10:08;;;;;;;14.77;8.55;;;1.90;99.90;;;;;;4731113;30;20063;-54
2023/11/28 07:12:36;;;;;;;16.20;9.63;;;1.90;99.90;;;;;;4748080;30;20418;-54
2023/11/28 07:15:04;;;;;;;19.38;9.50;;;1.90;99.90;;;;;;4749673;30;20510;-47
2023/11/28 07:17:32;;;;;;;20.02;9.68;;;1.90;99.90;;;;;;4747744;30;20075;-49
2023/11/28 07:20:00;;;;;;;19.77;9.88;;;1.90;99.90;;;;;;4747028;30;20093;-47
2023/11/28 07:22:27;;;;;;;24.20;11.25;;;1.90;99.90;;;;;;4746144;30;20063;-53
2023/11/28 07:24:55;;;;;;;19.42;9.57;;;1.90;99.90;;;;;;4728671;30;20056;-51
2023/11/28 07:27:27;;;;;;;18.45;10.05;;;1.80;99.90;;;;;;4748331;30;20055;-50
2023/11/28 07:29:54;;;;;;;19.23;9.73;;;1.80;99.90;;;;;;4748286;30;20072;-45
2023/11/28 07:32:23;;;;;;;17.65;9.25;;;1.80;99.90;;;;;;4746093;30;20056;-46
2023/11/28 07:34:51;;;;;;;16.73;9.80;;;1.80;99.90;;;;;;4746322;30;20071;-51
2023/11/28 07:37:18;;;;;;;16.00;9.63;;;1.80;99.90;;;;;;4750432;30;20048;-49
2023/11/28 07:39:45;;;;;;;18.20;10.88;;;1.70;99.90;;;;;;4746100;30;20127;-52
2023/11/28 07:42:15;;;;;;;21.10;10.57;;;1.70;99.90;;;;;;4747899;30;20059;-46
2023/11/28 07:44:44;;;;;;;21.15;11.75;;;1.70;99.90;;;;;;4736114;30;20493;-49
2023/11/28 07:47:11;;;;;;;19.10;11.35;;;1.80;99.90;;;;;;4745293;30;20059;-47
2023/11/28 07:49:43;;;;;;;20.80;11.60;;;1.80;99.90;;;;;;4750146;30;20062;-47
2023/11/28 07:52:12;;;;;;;19.50;11.32;;;1.80;99.90;;;;;;4736275;30;20060;-45
2023/11/28 07:54:39;;;;;;;18.48;10.45;;;1.80;99.90;;;;;;4740692;30;20119;-45
2023/11/28 07:57:06;;;;;;;18.90;10.88;;;1.80;99.90;;;;;;4735673;30;20044;-47
2023/11/28 07:59:34;;;;;;;17.95;10.30;;;1.80;99.90;;;;;;4745623;30;20056;-44
2023/11/28 08:02:01;;;;;;;17.88;10.57;;;1.80;99.90;;;;;;4749106;30;20514;-45
2023/11/28 08:04:28;;;;;;;18.35;10.10;;;1.80;99.90;;;;;;4734439;30;20135;-45
2023/11/28 08:06:55;;;;;;;19.48;11.82;;;1.80;99.90;;;;;;4745369;30;20066;-50
2023/11/28 08:09:23;;;;;;;20.05;11.38;;;1.70;99.90;;;;;;4742724;30;20120;-49
2023/11/28 08:11:51;;;;;;;20.02;12.23;;;1.70;99.90;;;;;;4749288;30;20062;-45
2023/11/28 08:14:18;;;;;;;23.40;13.48;;;1.70;99.90;;;;;;4745401;30;20115;-44
2023/11/28 08:16:48;;;;;;;19.73;11.07;;;1.60;99.90;;;;;;4749297;30;20068;-47
2023/11/28 08:19:16;;;;;;;18.98;11.52;;;1.70;99.90;;;;;;4748950;30;20079;-45
2023/11/28 08:21:43;;;;;;;23.80;12.10;;;1.70;99.90;;;;;;4747978;30;20187;-48
2023/11/28 08:24:10;;;;;;;21.02;11.70;;;1.60;99.90;;;;;;4745315;30;20148;-45
2023/11/28 08:26:38;;;;;;;19.25;11.45;;;1.60;99.90;;;;;;4748116;30;20048;-50
2023/11/28 08:29:05;;;;;;;17.67;9.98;;;1.50;99.90;;;;;;4748378;30;20055;-49
2023/11/28 08:31:32;;;;;;;21.23;11.93;;;1.50;99.90;;;;;;4747837;30;20211;-47
2023/11/28 08:33:59;;;;;;;21.00;12.05;;;1.50;99.90;;;;;;4748994;30;20087;-48
2023/11/28 08:36:29;;;;;;;19.27;10.40;;;1.50;99.90;;;;;;4749220;30;20055;-44
2023/11/28 08:38:56;;;;;;;17.48;9.50;;;1.50;99.90;;;;;;4748285;30;20056;-50
2023/11/28 08:41:23;;;;;;;17.98;10.13;;;1.50;99.90;;;;;;4732935;30;20048;-46
2023/11/28 08:43:51;;;;;;;16.60;9.77;;;1.50;99.90;;;;;;4748777;30;20507;-43
2023/11/28 08:46:18;;;;;;;16.38;9.48;;;1.50;99.90;;;;;;4748561;30;20100;-50
2023/11/28 08:48:50;;;;;;;17.37;9.47;;;1.50;99.90;;;;;;4748347;30;20059;-52
2023/11/28 08:51:17;;;;;;;16.85;9.55;;;1.50;99.90;;;;;;4749047;30;20066;-51
2023/11/28 08:53:45;;;;;;;15.63;9.13;;;1.50;99.90;;;;;;4748460;30;20121;-46
2023/11/28 08:56:13;;;;;;;14.88;8.75;;;1.50;99.90;;;;;;4732406;30;20036;-43
2023/11/28 08:58:40;;;;;;;17.15;9.10;;;1.50;99.90;;;;;;4730540;30;20063;-45
2023/11/28 09:01:08;;;;;;;15.63;9.52;;;1.60;99.90;;;;;;4749907;30;20044;-47
2023/11/28 09:03:35;;;;;;;16.52;8.43;;;1.60;99.90;;;;;;4749892;30;20537;-45
2023/11/28 09:06:03;;;;;;;14.52;8.68;;;1.70;99.90;;;;;;4735492;30;20105;-44
2023/11/28 09:08:30;;;;;;;14.57;7.80;;;1.70;99.90;;;;;;4749223;30;21430;-50
2023/11/28 09:10:57;;;;;;;13.50;8.00;;;1.70;99.90;;;;;;4749348;30;20056;-44
2023/11/28 09:13:24;;;;;;;12.90;7.68;;;1.80;99.90;;;;;;4748777;30;20101;-48
2023/11/28 09:15:55;;;;;;;14.43;7.75;;;1.80;99.90;;;;;;4727924;30;20112;-52
2023/11/28 09:18:22;;;;;;;13.43;7.75;;;1.80;99.90;;;;;;4729905;30;20117;-46
2023/11/28 09:20:49;;;;;;;13.20;7.10;;;1.90;99.90;;;;;;4746285;30;20052;-45
2023/11/28 09:23:16;;;;;;;12.55;6.63;;;1.80;99.90;;;;;;4745633;30;20510;-51
2023/11/28 09:25:43;;;;;;;11.38;6.93;;;1.70;99.90;;;;;;4747801;30;20044;-47
2023/11/28 09:28:23;;;;;;;12.27;7.45;;;1.80;99.90;;;;;;4747686;30;20056;-44
2023/11/28 09:30:50;;;;;;;9.88;6.07;;;1.80;99.90;;;;;;4749032;30;20541;-48
2023/11/28 09:33:17;;;;;;;9.73;6.03;;;1.90;99.90;;;;;;4747821;30;20079;-48
2023/11/28 09:35:47;;;;;;;13.02;5.88;;;1.80;99.90;;;;;;4748721;30;20192;-48
2023/11/28 09:38:14;;;;;;;10.80;5.80;;;1.80;99.90;;;;;;4731274;30;20056;-48
2023/11/28 09:40:42;;;;;;;12.18;7.40;;;1.60;99.90;;;;;;4731724;30;20142;-48
2023/11/28 09:43:10;;;;;;;10.85;6.40;;;1.60;99.90;;;;;;4747800;30;20151;-50
2023/11/28 09:45:41;;;;;;;9.35;5.28;;;1.70;99.90;;;;;;4732092;30;20060;-52
2023/11/28 09:48:10;;;;;;;8.68;5.75;;;1.60;99.90;;;;;;4731704;30;20060;-48
2023/11/28 09:50:44;;;;;;;8.02;5.13;;;1.60;99.90;;;;;;4746017;30;20539;-44
2023/11/28 09:53:13;;;;;;;9.27;5.10;;;1.70;99.90;;;;;;4711554;30;20060;-46
2023/11/28 09:55:41;;;;;;;9.55;5.30;;;1.50;99.90;;;;;;4729805;30;20089;-48
2023/11/28 09:58:10;;;;;;;9.90;4.65;;;1.60;99.90;;;;;;4728013;30;20100;-47
2023/11/28 10:00:38;;;;;;;10.50;4.63;;;1.60;99.90;;;;;;4720769;30;20347;-51
2023/11/28 10:03:05;;;;;;;6.88;4.40;;;1.60;99.90;;;;;;4750566;30;20133;-49
2023/11/28 10:05:33;;;;;;;6.57;4.10;;;1.60;99.90;;;;;;4703872;30;20059;-45
2023/11/28 10:08:01;;;;;;;5.72;3.42;;;1.50;99.90;;;;;;4751754;30;20056;-46
2023/11/28 10:10:29;;;;;;;6.53;4.00;;;1.40;99.90;;;;;;4750054;30;20044;-52
2023/11/28 10:12:56;;;;;;;6.70;3.92;;;1.40;99.90;;;;;;4729867;30;20044;-48
2023/11/28 10:15:26;;;;;;;7.00;3.85;;;1.30;99.90;;;;;;4733141;30;20488;-48
2023/11/28 10:17:54;;;;;;;8.00;4.00;;;1.30;99.90;;;;;;4750172;30;20654;-44
2023/11/28 10:20:24;;;;;;;6.30;3.30;;;1.30;99.90;;;;;;4749378;30;20060;-49
2023/11/28 10:22:52;;;;;;;6.95;3.72;;;1.20;99.90;;;;;;4750189;30;20147;-44
2023/11/28 10:25:24;;;;;;;5.55;3.25;;;1.10;99.90;;;;;;4721100;30;20401;-50
2023/11/28 10:27:58;;;;;;;7.32;3.50;;;1.10;99.90;;;;;;4749373;30;20055;-51
2023/11/28 10:30:27;;;;;;;5.88;3.10;;;1.20;99.90;;;;;;4749874;30;20059;-49
2023/11/28 10:32:58;;;;;;;5.50;3.08;;;1.10;99.90;;;;;;4749802;30;20052;-47
2023/11/28 10:35:43;;;;;;;5.20;2.80;;;1.10;99.90;;;;;;4733880;30;20151;-46
2023/11/28 10:38:14;;;;;;;6.15;3.40;;;1.10;99.90;;;;;;4733986;30;20052;-46
2023/11/28 10:40:45;;;;;;;5.82;3.28;;;1.10;99.90;;;;;;4747094;30;20044;-44
2023/11/28 10:43:13;;;;;;;5.65;3.00;;;1.10;99.90;;;;;;4748000;30;20561;-48
2023/11/28 10:45:43;;;;;;;6.65;3.30;;;1.10;99.90;;;;;;4732242;30;20070;-48
2023/11/28 10:48:11;;;;;;;4.78;3.00;;;1.10;99.90;;;;;;4746621;30;20055;-50
2023/11/28 10:50:42;;;;;;;4.90;2.90;;;1.10;99.90;;;;;;4729257;30;20055;-54
2023/11/28 10:53:13;;;;;;;4.20;2.67;;;1.10;99.90;;;;;;4749706;30;20157;-48
2023/11/28 10:55:49;;;;;;;4.68;2.78;;;1.10;99.90;;;;;;4747092;30;20044;-44
2023/11/28 10:58:17;;;;;;;4.72;3.10;;;1.10;99.90;;;;;;4750691;30;20056;-47
2023/11/28 11:00:46;;;;;;;6.55;3.08;;;1.20;99.90;;;;;;4748519;30;20044;-43
2023/11/28 11:03:16;;;;;;;5.85;3.40;;;1.20;99.90;;;;;;4748027;30;20052;-52
2023/11/28 11:05:43;;;;;;;5.07;3.22;;;1.10;99.90;;;;;;4747973;30;20060;-52
2023/11/28 11:08:11;;;;;;;4.90;2.97;;;1.00;99.90;;;;;;4748767;30;20047;-47
2023/11/28 11:10:39;;;;;;;4.32;3.10;;;1.00;99.90;;;;;;4730438;30;20056;-49
2023/11/28 11:13:40;;;;;;;5.70;3.30;;;0.90;99.90;;;;;;4728943;30;20056;-49
2023/11/28 11:16:15;;;;;;;5.00;3.17;;;1.00;99.90;;;;;;4745830;30;20080;-46
2023/11/28 11:18:49;;;;;;;5.40;3.22;;;0.90;99.90;;;;;;4747243;30;20056;-47
2023/11/28 11:21:28;;;;;;;5.88;3.60;;;0.90;99.90;;;;;;4748109;30;20133;-47
2023/11/28 11:23:57;;;;;;;5.90;3.70;;;1.00;99.90;;;;;;4742887;30;20044;-48
2023/11/28 11:26:37;;;;;;;8.00;4.72;;;0.90;99.90;;;;;;4746647;30;20070;-47
2023/11/28 11:29:24;;;;;;;9.48;5.40;;;0.90;99.90;;;;;;4747495;30;20067;-50
2023/11/28 11:31:56;;;;;;;9.02;5.22;;;0.80;99.90;;;;;;4736989;30;20082;-43
2023/11/28 11:34:36;;;;;;;7.43;4.80;;;0.80;99.90;;;;;;4745401;30;20044;-48
2023/11/28 11:37:07;;;;;;;8.48;5.47;;;0.80;99.90;;;;;;4747390;30;20585;-45
2023/11/28 11:39:36;;;;;;;7.20;4.97;;;0.70;99.90;;;;;;4746502;30;20060;-49
2023/11/28 11:42:24;;;;;;;6.65;4.80;;;0.80;99.90;;;;;;4731109;30;20056;-44
2023/11/28 11:44:53;;;;;;;7.72;4.90;;;0.70;99.90;;;;;;4733396;30;20056;-47
2023/11/28 11:47:25;;;;;;;9.63;5.35;;;0.70;99.90;;;;;;4746971;30;20116;-47
2023/11/28 11:49:54;;;;;;;8.57;5.43;;;0.80;99.90;;;;;;4746522;30;20056;-47
2023/11/28 11:52:25;;;;;;;8.48;5.13;;;0.80;99.90;;;;;;4730273;30;20118;-46
2023/11/28 11:55:07;;;;;;;9.55;5.20;;;0.80;99.90;;;;;;4731790;30;20584;-47
2023/11/28 11:57:35;;;;;;;9.50;5.03;;;0.80;99.90;;;;;;4746080;30;20044;-45
2023/11/28 12:00:02;;;;;;;15.30;7.63;;;0.70;99.90;;;;;;4746730;30;20121;-47
2023/11/28 12:02:41;;;;;;;7.18;4.88;;;0.70;99.90;;;;;;4746298;30;20489;-49
2023/11/28 12:05:10;;;;;;;7.50;5.30;;;0.70;99.90;;;;;;4745925;30;20056;-43
2023/11/28 12:07:40;;;;;;;8.15;5.45;;;0.60;99.90;;;;;;4747382;30;20060;-45
2023/11/28 12:10:11;;;;;;;8.23;5.22;;;0.70;99.90;;;;;;4746693;30;20343;-48
2023/11/28 12:12:39;;;;;;;8.02;5.78;;;0.60;99.90;;;;;;4730545;30;20052;-44
2023/11/28 12:15:09;;;;;;;7.90;5.55;;;0.60;99.90;;;;;;4743030;30;20048;-49
2023/11/28 12:17:39;;;;;;;8.60;5.72;;;0.60;99.90;;;;;;4748462;30;20055;-51
2023/11/28 12:20:08;;;;;;;8.90;5.93;;;0.60;99.90;;;;;;4732653;30;20837;-44
2023/11/28 12:22:35;;;;;;;8.15;5.88;;;0.70;99.90;;;;;;4745785;30;20044;-46
2023/11/28 12:25:03;;;;;;;8.88;5.93;;;0.70;99.90;;;;;;4747309;30;20331;-45
2023/11/28 12:27:31;;;;;;;9.07;5.68;;;0.60;99.90;;;;;;4747915;30;20470;-43
2023/11/28 12:30:00;;;;;;;7.68;5.70;;;0.50;99.90;;;;;;4747070;30;20075;-45
2023/11/28 12:32:31;;;;;;;7.40;5.88;;;0.50;99.90;;;;;;4729533;30;20079;-45
2023/11/28 12:34:59;;;;;;;8.40;5.43;;;0.50;99.90;;;;;;4747214;30;20059;-43
2023/11/28 12:37:29;;;;;;;9.27;5.85;;;0.40;99.90;;;;;;4747442;30;20048;-46
2023/11/28 12:39:57;;;;;;;9.95;6.10;;;0.40;99.90;;;;;;4726737;30;20056;-51
2023/11/28 12:42:27;;;;;;;9.43;6.70;;;0.40;99.90;;;;;;4742118;30;20502;-48
2023/11/28 12:44:57;;;;;;;9.15;6.25;;;0.40;99.90;;;;;;4746458;30;20086;-50
2023/11/28 12:47:27;;;;;;;10.63;6.68;;;0.40;99.90;;;;;;4746437;30;20059;-50
2023/11/28 12:49:55;;;;;;;9.13;6.47;;;0.40;99.90;;;;;;4747750;24;20464;-46
2023/11/28 12:52:27;;;;;;;9.50;7.05;;;0.50;99.90;;;;;;4728686;30;20673;-48
2023/11/28 12:54:54;;;;;;;9.23;6.28;;;0.50;99.90;;;;;;4722914;30;20067;-51